Spirit Of Oceanus — C6PJ8 — position and weather

sailwx.info

Track history (hours):
 
Tides and Currents Weather Stations Pressure Air Temp Water Temp Dewpoint Dewpoint Depression Visibility Wind Speed Wind Dir Waves Ship Positions

Spirit Of Oceanus

Last reported at 2017-Feb-26 05:14 UTC. Time now 2017-Mar-26 17:07 UTC.
Position S 55°02' W 066°45'.
Warning: this ship's position is 28 days out of date.

Type: Passenger vessel. MMSI: 309224000.

Date/timePositionNaut miles runAvg speedWind from/ knotsBaromVisibWave heightAir tempDewpointWater temp
2017-Feb-26 05:14S 55°02' W 066°45'0 0.2
2017-Feb-26 04:15S 55°02' W 066°44'25 5.3
2017-Feb-25 23:32S 54°55' W 067°26'1312.9
2017-Feb-25 22:34S 54°53' W 067°48'1313.3
2017-Feb-25 21:34S 54°50' W 068°10'5 4.5
2017-Feb-25 20:32S 54°49' W 068°18'0 0.0
2017-Feb-25 19:32S 54°49' W 068°18'0 0.0
2017-Feb-25 18:32S 54°49' W 068°18'0 0.0
2017-Feb-25 17:32S 54°49' W 068°18'0 0.0
2017-Feb-25 16:32S 54°49' W 068°18'0 0.0
2017-Feb-25 15:32S 54°49' W 068°18'0 0.0
2017-Feb-25 14:32S 54°49' W 068°18'0 0.0
2017-Feb-25 13:32S 54°49' W 068°18'0 0.0
2017-Feb-25 12:32S 54°49' W 068°18'0 0.0
2017-Feb-25 11:29S 54°49' W 068°18'0 0.0
2017-Feb-25 10:32S 54°49' W 068°18'1 1.1
2017-Feb-25 09:33S 54°49' W 068°16'1111.1
2017-Feb-25 08:33S 54°52' W 067°58'1312.6
2017-Feb-25 07:33S 54°54' W 067°36'10 9.6
2017-Feb-25 06:33S 54°55' W 067°20'  
Track history (hours):
 
Tides and Currents Weather Stations Pressure Air Temp Water Temp Dewpoint Dewpoint Depression Visibility Wind Speed Wind Dir Waves Ship Positions

Spirit Of Oceanus

Last reported at 2017-Feb-26 05:14 UTC. Time now 2017-Mar-26 17:07 UTC.
Position S 55°02' W 066°45'.
Warning: this ship's position is 28 days out of date.

Type: Passenger vessel. MMSI: 309224000.

Date/timePositionNaut miles runAvg speedWind from/ knotsBaromVisibWave heightAir tempDewpointWater temp
2017-Feb-26 05:14S 55°02' W 066°45'0 0.2
2017-Feb-26 04:15S 55°02' W 066°44'25 5.3
2017-Feb-25 23:32S 54°55' W 067°26'1312.9
2017-Feb-25 22:34S 54°53' W 067°48'1313.3
2017-Feb-25 21:34S 54°50' W 068°10'5 4.5
2017-Feb-25 20:32S 54°49' W 068°18'0 0.0
2017-Feb-25 19:32S 54°49' W 068°18'0 0.0
2017-Feb-25 18:32S 54°49' W 068°18'0 0.0
2017-Feb-25 17:32S 54°49' W 068°18'0 0.0
2017-Feb-25 16:32S 54°49' W 068°18'0 0.0
2017-Feb-25 15:32S 54°49' W 068°18'0 0.0
2017-Feb-25 14:32S 54°49' W 068°18'0 0.0
2017-Feb-25 13:32S 54°49' W 068°18'0 0.0
2017-Feb-25 12:32S 54°49' W 068°18'0 0.0
2017-Feb-25 11:29S 54°49' W 068°18'0 0.0
2017-Feb-25 10:32S 54°49' W 068°18'1 1.1
2017-Feb-25 09:33S 54°49' W 068°16'1111.1
2017-Feb-25 08:33S 54°52' W 067°58'1312.6
2017-Feb-25 07:33S 54°54' W 067°36'10 9.6
2017-Feb-25 06:33S 54°55' W 067°20'  

Dump ship's entire track history